createdAt,value
2023-03-21T00:00:40.016Z,57.50
2023-03-21T00:03:06.900Z,57.29
2023-03-21T00:05:33.582Z,57.69
2023-03-21T00:08:02.254Z,57.58
2023-03-21T00:10:39.513Z,57.24
2023-03-21T00:13:08.052Z,57.76
2023-03-21T00:15:44.238Z,57.59
2023-03-21T00:18:17.852Z,58.66
2023-03-21T00:20:47.428Z,57.93
2023-03-21T00:23:14.060Z,58.07
2023-03-21T00:25:40.818Z,57.80
2023-03-21T00:28:08.753Z,58.13
2023-03-21T00:30:35.507Z,58.07
2023-03-21T00:33:12.111Z,57.83
2023-03-21T00:36:01.831Z,57.45
2023-03-21T00:38:29.708Z,57.89
2023-03-21T00:40:58.238Z,57.43
2023-03-21T00:43:30.187Z,57.52
2023-03-21T00:45:58.742Z,57.59
2023-03-21T00:48:26.761Z,57.39
2023-03-21T00:50:55.352Z,57.72
2023-03-21T00:53:22.315Z,57.67
2023-03-21T00:55:49.270Z,57.84
2023-03-21T00:58:16.988Z,58.01
2023-03-21T01:00:43.845Z,57.93
2023-03-21T01:03:23.823Z,57.83
2023-03-21T01:06:05.144Z,57.70
2023-03-21T01:08:52.127Z,58.04
2023-03-21T01:11:22.938Z,58.25
2023-03-21T01:13:57.828Z,57.61
2023-03-21T01:16:31.835Z,57.65
2023-03-21T01:18:59.662Z,57.86
2023-03-21T01:21:26.643Z,58.36
2023-03-21T01:23:53.195Z,58.25
2023-03-21T01:26:19.935Z,57.84
2023-03-21T01:28:46.803Z,58.00
2023-03-21T01:31:15.793Z,58.28
2023-03-21T01:33:43.118Z,58.36
2023-03-21T01:36:16.027Z,57.87
2023-03-21T01:38:43.589Z,58.47
2023-03-21T01:41:43.092Z,58.88
2023-03-21T01:44:15.137Z,58.90
2023-03-21T01:47:00.051Z,59.46
2023-03-21T01:49:38.751Z,59.32
2023-03-21T01:52:14.078Z,59.10
2023-03-21T01:54:44.395Z,59.38
2023-03-21T01:57:22.559Z,59.77
2023-03-21T01:59:52.610Z,59.17
2023-03-21T02:02:24.514Z,59.30
2023-03-21T02:04:55.912Z,59.72
2023-03-21T02:07:29.209Z,59.46
2023-03-21T02:09:58.026Z,59.61
2023-03-21T02:12:26.350Z,60.06
2023-03-21T02:14:54.302Z,60.68
2023-03-21T02:17:45.894Z,60.75
2023-03-21T02:20:25.392Z,60.80
2023-03-21T02:23:17.104Z,60.87
2023-03-21T02:25:43.622Z,60.39
2023-03-21T02:28:31.041Z,61.55
2023-03-21T02:31:34.424Z,60.91
2023-03-21T02:34:24.577Z,61.96
2023-03-21T02:37:05.650Z,62.43
2023-03-21T02:39:48.416Z,61.48
2023-03-21T02:42:28.337Z,61.36
2023-03-21T02:45:05.666Z,62.28
2023-03-21T02:47:43.347Z,62.76
2023-03-21T02:50:19.625Z,62.94
2023-03-21T02:52:48.256Z,62.44
2023-03-21T02:55:19.865Z,62.22
2023-03-21T02:57:49.325Z,63.16
2023-03-21T03:00:20.112Z,62.66
2023-03-21T03:02:48.811Z,63.67
2023-03-21T03:05:23.417Z,63.44
2023-03-21T03:07:58.966Z,63.13
2023-03-21T03:11:07.184Z,63.32
2023-03-21T03:14:36.696Z,64.13
2023-03-21T03:17:18.715Z,64.11
2023-03-21T03:20:33.446Z,64.83
2023-03-21T03:23:18.016Z,65.19
2023-03-21T03:25:56.431Z,65.50
2023-03-21T03:28:28.804Z,65.87
2023-03-21T03:31:08.698Z,65.98
2023-03-21T03:33:40.381Z,66.27
2023-03-21T03:36:12.783Z,66.23
2023-03-21T03:38:48.348Z,65.66
2023-03-21T03:41:22.000Z,65.88
2023-03-21T03:43:51.121Z,66.11
2023-03-21T03:46:23.390Z,64.13
2023-03-21T03:48:58.568Z,64.24
2023-03-21T03:51:51.964Z,63.76
2023-03-21T03:54:25.592Z,64.32
2023-03-21T03:56:52.927Z,63.91
2023-03-21T03:59:21.988Z,63.37
2023-03-21T04:01:49.226Z,63.77
2023-03-21T04:04:17.092Z,63.24
2023-03-21T04:06:45.546Z,62.07
2023-03-21T04:09:20.432Z,61.69
2023-03-21T04:11:50.315Z,61.62
2023-03-21T04:14:16.894Z,62.47
2023-03-21T04:16:43.504Z,61.72
2023-03-21T04:19:10.111Z,61.31
2023-03-21T04:21:36.666Z,60.81
2023-03-21T04:24:03.409Z,60.69
2023-03-21T04:26:33.106Z,60.53
2023-03-21T04:29:03.529Z,60.61
2023-03-21T04:31:31.439Z,60.62
2023-03-21T04:33:59.602Z,60.28
2023-03-21T04:36:38.976Z,60.78
2023-03-21T04:39:12.302Z,60.23
2023-03-21T04:41:44.408Z,60.25
2023-03-21T04:44:12.256Z,60.34
2023-03-21T04:46:39.597Z,60.42
2023-03-21T04:49:09.858Z,59.91
2023-03-21T04:51:37.539Z,60.08
2023-03-21T04:54:05.976Z,59.79
2023-03-21T04:56:33.971Z,59.36
2023-03-21T04:59:05.840Z,59.66
2023-03-21T05:01:32.679Z,59.30
2023-03-21T05:04:01.136Z,59.59
2023-03-21T05:06:28.626Z,59.49
2023-03-21T05:09:00.129Z,58.96
2023-03-21T05:11:28.335Z,59.11
2023-03-21T05:13:54.874Z,59.71
2023-03-21T05:16:25.518Z,59.12
2023-03-21T05:18:56.148Z,59.37
2023-03-21T05:21:23.344Z,58.87
2023-03-21T05:23:54.679Z,59.28
2023-03-21T05:26:25.239Z,58.95
2023-03-21T05:28:51.801Z,58.59
2023-03-21T05:31:19.038Z,58.81
2023-03-21T05:33:46.810Z,58.96
2023-03-21T05:36:14.469Z,58.90
2023-03-21T05:38:46.181Z,58.81
2023-03-21T05:41:14.252Z,58.79
2023-03-21T05:43:41.041Z,58.93
2023-03-21T05:46:08.299Z,59.29
2023-03-21T05:48:35.884Z,59.41
2023-03-21T05:51:03.126Z,59.19
2023-03-21T05:53:29.790Z,59.10
2023-03-21T05:55:56.414Z,59.24
2023-03-21T05:58:23.005Z,59.48
2023-03-21T06:00:49.821Z,59.05
2023-03-21T06:03:16.483Z,59.40
2023-03-21T06:05:43.093Z,59.53
2023-03-21T06:08:09.672Z,58.72
2023-03-21T06:10:36.278Z,58.18
2023-03-21T06:13:02.985Z,57.72
2023-03-21T06:15:29.627Z,57.22
2023-03-21T06:17:56.210Z,57.04
2023-03-21T06:20:22.866Z,55.69
2023-03-21T06:22:49.635Z,55.56
2023-03-21T06:25:16.784Z,55.47
2023-03-21T06:27:43.379Z,54.94
2023-03-21T06:30:10.761Z,54.10
2023-03-21T06:32:37.389Z,53.95
2023-03-21T06:35:04.995Z,53.39
2023-03-21T06:37:32.641Z,52.91
2023-03-21T06:39:59.776Z,52.82
2023-03-21T06:42:26.548Z,52.84
2023-03-21T06:44:53.162Z,53.08
2023-03-21T06:47:19.758Z,53.29
2023-03-21T06:49:46.337Z,53.46
2023-03-21T06:52:12.970Z,53.36
2023-03-21T06:54:39.725Z,54.23
2023-03-21T06:57:06.312Z,55.16
2023-03-21T06:59:34.095Z,54.32
2023-03-21T07:02:00.695Z,54.26
2023-03-21T07:04:27.769Z,55.11
2023-03-21T07:06:54.751Z,54.14
2023-03-21T07:09:24.621Z,53.59
2023-03-21T07:11:53.586Z,53.47
2023-03-21T07:14:20.227Z,53.48
2023-03-21T07:16:47.055Z,52.83
2023-03-21T07:19:14.147Z,52.75
2023-03-21T07:21:40.708Z,53.28
2023-03-21T07:24:07.567Z,52.79
2023-03-21T07:26:34.456Z,52.25
2023-03-21T07:29:01.078Z,52.38
2023-03-21T07:31:27.905Z,52.22
2023-03-21T07:33:54.565Z,52.04
2023-03-21T07:36:21.435Z,52.05
2023-03-21T07:38:48.062Z,52.00
2023-03-21T07:43:42.854Z,51.65
2023-03-21T07:46:09.567Z,51.98
2023-03-21T07:48:37.288Z,51.37
2023-03-21T07:51:06.482Z,51.34
2023-03-21T07:53:33.268Z,51.38
2023-03-21T07:55:59.893Z,50.77
2023-03-21T07:58:27.311Z,50.30
2023-03-21T08:00:55.625Z,49.98
2023-03-21T08:03:24.060Z,49.23
2023-03-21T08:05:51.148Z,48.79
2023-03-21T08:08:18.046Z,48.43
2023-03-21T08:10:44.736Z,48.11
2023-03-21T08:13:11.816Z,47.43
2023-03-21T08:15:39.967Z,46.91
2023-03-21T08:18:06.790Z,47.10
2023-03-21T08:20:33.403Z,46.67
2023-03-21T08:23:00.033Z,46.80
2023-03-21T08:25:26.677Z,45.86
2023-03-21T08:27:53.285Z,45.66
2023-03-21T08:30:22.821Z,45.41
2023-03-21T08:32:49.830Z,44.89
2023-03-21T08:35:18.725Z,45.17
2023-03-21T08:37:45.513Z,44.93
2023-03-21T08:40:16.115Z,44.50
2023-03-21T08:42:43.617Z,44.31
2023-03-21T08:45:11.744Z,44.27
2023-03-21T08:47:38.459Z,43.75
2023-03-21T08:50:06.905Z,44.46
2023-03-21T08:52:34.172Z,44.49
2023-03-21T08:55:02.270Z,44.66
2023-03-21T08:57:29.796Z,43.86
2023-03-21T08:59:57.221Z,42.86
2023-03-21T09:02:23.900Z,42.77
2023-03-21T09:04:53.204Z,42.40
2023-03-21T09:07:20.221Z,43.51
2023-03-21T09:09:53.478Z,43.73
2023-03-21T09:12:24.760Z,43.06
2023-03-21T09:14:53.292Z,43.27
2023-03-21T09:17:21.207Z,42.64
2023-03-21T09:19:49.818Z,42.60
2023-03-21T09:22:21.363Z,43.01
2023-03-21T09:24:49.267Z,43.14
2023-03-21T09:27:25.507Z,43.07
2023-03-21T09:29:52.357Z,43.66
2023-03-21T09:32:19.183Z,44.04
2023-03-21T09:34:45.970Z,43.76
2023-03-21T09:37:13.739Z,43.07
2023-03-21T09:39:41.223Z,42.79
2023-03-21T09:42:19.783Z,42.13
2023-03-21T09:45:01.433Z,42.31
2023-03-21T09:47:34.889Z,42.54
2023-03-21T09:50:14.089Z,42.35
2023-03-21T09:52:57.375Z,42.44
2023-03-21T09:55:30.848Z,43.50
2023-03-21T09:57:57.669Z,41.93
2023-03-21T10:00:31.019Z,42.35
2023-03-21T10:03:01.764Z,43.93
2023-03-21T10:05:31.245Z,43.55
2023-03-21T10:08:00.946Z,43.65
2023-03-21T10:13:15.888Z,43.98
2023-03-21T10:15:42.603Z,43.50
2023-03-21T10:18:23.747Z,43.76
2023-03-21T10:20:52.024Z,43.44
2023-03-21T10:23:22.638Z,43.03
2023-03-21T10:26:01.174Z,43.15
2023-03-21T10:28:49.901Z,43.35
2023-03-21T10:31:25.437Z,43.39
2023-03-21T10:33:54.224Z,42.78
2023-03-21T10:36:25.903Z,42.51
2023-03-21T10:39:01.775Z,41.99
2023-03-21T10:41:28.605Z,42.03
2023-03-21T10:44:08.871Z,40.33
2023-03-21T10:46:36.396Z,40.02
2023-03-21T10:49:06.988Z,39.70
2023-03-21T10:51:36.698Z,39.89
2023-03-21T10:54:12.945Z,39.74
2023-03-21T10:56:47.112Z,39.75
2023-03-21T10:59:20.822Z,40.18
2023-03-21T11:01:55.309Z,40.61
2023-03-21T11:04:26.441Z,40.31
2023-03-21T11:07:03.609Z,40.16
2023-03-21T11:09:50.039Z,39.13
2023-03-21T11:12:29.136Z,40.07
2023-03-21T11:14:56.217Z,39.35
2023-03-21T11:17:31.356Z,38.25
2023-03-21T11:20:00.962Z,39.25
2023-03-21T11:22:31.012Z,39.89
2023-03-21T11:25:00.992Z,38.30
2023-03-21T11:27:30.468Z,38.35
2023-03-21T11:29:59.887Z,38.70
2023-03-21T11:32:38.076Z,36.25
2023-03-21T11:35:06.260Z,35.85
2023-03-21T11:37:39.407Z,35.70
2023-03-21T11:40:09.417Z,35.77
2023-03-21T11:42:48.274Z,33.09
2023-03-21T11:45:21.652Z,36.07
2023-03-21T11:47:49.558Z,35.72
2023-03-21T11:50:16.645Z,36.89
2023-03-21T11:53:06.379Z,34.60
2023-03-21T11:56:04.625Z,35.99
2023-03-21T11:58:44.109Z,36.91
2023-03-21T12:01:33.448Z,36.20
2023-03-21T12:04:18.534Z,37.21
2023-03-21T12:06:59.478Z,35.55
2023-03-21T12:09:38.143Z,36.55
2023-03-21T12:12:24.513Z,36.25
2023-03-21T12:15:21.242Z,37.78
2023-03-21T12:18:16.061Z,34.18
2023-03-21T12:20:51.958Z,36.87
2023-03-21T12:23:21.350Z,34.94
2023-03-21T12:25:56.581Z,35.26
2023-03-21T12:28:37.895Z,31.57
2023-03-21T12:31:11.186Z,34.89
2023-03-21T12:33:47.206Z,32.61
2023-03-21T12:36:32.213Z,34.15
2023-03-21T12:38:58.697Z,33.46
2023-03-21T12:42:04.610Z,31.87
2023-03-21T12:44:37.403Z,33.75
2023-03-21T12:47:12.480Z,34.44
2023-03-21T12:49:46.289Z,33.83
2023-03-21T12:52:17.464Z,34.03
2023-03-21T12:54:43.978Z,34.04
2023-03-21T12:57:25.540Z,33.16
2023-03-21T12:59:52.104Z,33.99
2023-03-21T13:02:43.387Z,33.96
2023-03-21T13:05:19.167Z,33.21
2023-03-21T13:07:52.454Z,33.83
2023-03-21T13:10:21.318Z,33.88
2023-03-21T13:12:47.825Z,33.25
2023-03-21T13:15:32.557Z,32.57
2023-03-21T13:18:05.910Z,32.32
2023-03-21T13:20:54.811Z,33.24
2023-03-21T13:23:23.093Z,34.29
2023-03-21T13:25:52.548Z,34.32
2023-03-21T13:28:25.726Z,33.83
2023-03-21T13:30:52.735Z,33.90
2023-03-21T13:33:29.350Z,34.35
2023-03-21T13:36:06.388Z,34.40
2023-03-21T13:38:35.589Z,34.89
2023-03-21T13:41:14.136Z,34.41
2023-03-21T13:43:43.250Z,34.73
2023-03-21T13:46:13.782Z,34.43
2023-03-21T13:48:58.518Z,34.54
2023-03-21T13:51:28.638Z,35.04
2023-03-21T13:54:02.603Z,35.46
2023-03-21T13:56:30.653Z,35.40
2023-03-21T13:59:02.280Z,35.27
2023-03-21T14:01:42.624Z,35.13
2023-03-21T14:04:16.908Z,35.48
2023-03-21T14:06:47.587Z,36.18
2023-03-21T14:09:47.809Z,36.18
2023-03-21T14:12:18.684Z,36.15
2023-03-21T14:15:15.770Z,35.49
2023-03-21T14:17:51.027Z,35.98
2023-03-21T14:20:27.172Z,36.09
2023-03-21T14:22:54.036Z,36.42
2023-03-21T14:25:24.356Z,36.97
2023-03-21T14:27:56.857Z,36.20
2023-03-21T14:30:38.856Z,36.01
2023-03-21T14:33:18.613Z,36.75
2023-03-21T14:35:47.707Z,36.97
2023-03-21T14:38:33.035Z,36.72
2023-03-21T14:40:59.650Z,36.82
2023-03-21T14:43:27.112Z,36.87
2023-03-21T14:45:56.405Z,36.56
2023-03-21T14:48:34.921Z,36.90
2023-03-21T14:51:05.057Z,37.04
2023-03-21T14:53:36.843Z,37.32
2023-03-21T14:56:09.166Z,37.22
2023-03-21T14:58:40.509Z,37.40
2023-03-21T15:01:13.642Z,37.54
2023-03-21T15:03:40.604Z,37.31
2023-03-21T15:06:13.350Z,37.08
2023-03-21T15:08:40.921Z,37.33
2023-03-21T15:11:12.789Z,37.08
2023-03-21T15:13:50.305Z,37.96
2023-03-21T15:16:17.804Z,37.58
2023-03-21T15:18:45.489Z,37.80
2023-03-21T15:21:22.267Z,37.84
2023-03-21T15:23:53.192Z,38.00
2023-03-21T15:26:23.992Z,38.38
2023-03-21T15:28:56.115Z,38.15
2023-03-21T15:31:25.951Z,38.28
2023-03-21T15:33:54.493Z,38.80
2023-03-21T15:36:25.176Z,38.31
2023-03-21T15:38:52.305Z,38.45
2023-03-21T15:41:21.598Z,38.49
2023-03-21T15:44:09.389Z,38.68
2023-03-21T15:46:50.635Z,39.87
2023-03-21T15:49:21.214Z,39.49
2023-03-21T15:51:53.915Z,39.30
2023-03-21T15:54:55.808Z,39.99
2023-03-21T15:57:34.241Z,39.44
2023-03-21T16:00:09.504Z,40.17
2023-03-21T16:02:36.203Z,40.11
2023-03-21T16:05:22.209Z,40.15
2023-03-21T16:07:48.813Z,40.18
2023-03-21T16:10:31.645Z,40.47
2023-03-21T16:12:58.888Z,40.57
2023-03-21T16:15:27.196Z,40.82
2023-03-21T16:17:57.640Z,41.23
2023-03-21T16:20:27.924Z,40.69
2023-03-21T16:22:54.555Z,41.06
2023-03-21T16:25:21.864Z,41.29
2023-03-21T16:27:48.927Z,41.33
2023-03-21T16:30:18.592Z,41.48
2023-03-21T16:32:45.363Z,41.50
2023-03-21T16:35:12.073Z,41.75
2023-03-21T16:37:39.337Z,42.15
2023-03-21T16:40:29.056Z,42.16
2023-03-21T16:42:55.941Z,41.89
2023-03-21T16:45:23.241Z,42.14
2023-03-21T16:47:50.907Z,42.19
2023-03-21T16:50:31.038Z,42.43
2023-03-21T16:52:58.019Z,42.73
2023-03-21T16:55:25.665Z,42.91
2023-03-21T16:57:53.055Z,42.82
2023-03-21T17:00:25.369Z,42.84
2023-03-21T17:02:54.926Z,42.94
2023-03-21T17:05:25.742Z,43.18
2023-03-21T17:07:55.665Z,43.33
2023-03-21T17:10:26.348Z,42.95
2023-03-21T17:12:53.837Z,43.01
2023-03-21T17:15:21.739Z,43.27
2023-03-21T17:17:55.575Z,43.46
2023-03-21T17:20:25.576Z,43.25
2023-03-21T17:22:52.175Z,43.66
2023-03-21T17:25:19.705Z,44.16
2023-03-21T17:27:47.218Z,44.19
2023-03-21T17:30:24.390Z,44.43
2023-03-21T17:32:52.366Z,44.76
2023-03-21T17:35:19.946Z,44.53
2023-03-21T17:37:50.585Z,44.96
2023-03-21T17:40:25.892Z,45.03
2023-03-21T17:42:53.432Z,45.74
2023-03-21T17:45:21.555Z,46.17
2023-03-21T17:47:48.323Z,45.96
2023-03-21T17:50:21.649Z,46.60
2023-03-21T17:52:50.731Z,46.45
2023-03-21T17:55:19.721Z,46.48
2023-03-21T17:57:47.060Z,46.49
2023-03-21T18:00:22.686Z,47.01
2023-03-21T18:02:50.453Z,47.55
2023-03-21T18:05:17.582Z,47.25
2023-03-21T18:08:08.810Z,47.51
2023-03-21T18:10:32.338Z,47.64
2023-03-21T18:12:59.095Z,47.91
2023-03-21T18:15:30.050Z,47.61
2023-03-21T18:17:57.691Z,48.18
2023-03-21T18:20:44.605Z,47.97
2023-03-21T18:23:14.347Z,48.31
2023-03-21T18:25:41.838Z,47.70
2023-03-21T18:28:11.790Z,48.37
2023-03-21T18:30:56.917Z,48.05
2023-03-21T18:33:27.455Z,48.47
2023-03-21T18:35:59.084Z,48.60
2023-03-21T18:38:27.834Z,48.47
2023-03-21T18:40:55.398Z,48.96
2023-03-21T18:46:09.203Z,48.42
2023-03-21T18:48:36.583Z,48.13
2023-03-21T18:51:03.873Z,48.87
2023-03-21T18:53:30.444Z,48.83
2023-03-21T18:55:57.578Z,48.57
2023-03-21T18:58:25.540Z,48.11
2023-03-21T19:00:53.845Z,48.70
2023-03-21T19:03:35.159Z,48.88
2023-03-21T19:06:04.958Z,48.94
2023-03-21T19:08:32.418Z,48.80
2023-03-21T19:11:03.766Z,49.45
2023-03-21T19:13:33.507Z,49.43
2023-03-21T19:16:02.447Z,49.44
2023-03-21T19:18:50.365Z,49.01
2023-03-21T19:21:17.152Z,49.22
2023-03-21T19:24:20.759Z,49.92
2023-03-21T19:26:30.904Z,49.73
2023-03-21T19:28:57.565Z,50.46
2023-03-21T19:31:24.772Z,50.19
2023-03-21T19:33:51.860Z,50.68
2023-03-21T19:36:22.737Z,50.55
2023-03-21T19:38:50.485Z,50.91
2023-03-21T19:41:18.220Z,50.84
2023-03-21T19:43:54.242Z,51.64
2023-03-21T19:46:24.967Z,51.56
2023-03-21T19:48:56.187Z,51.44
2023-03-21T19:51:29.307Z,51.88
2023-03-21T19:53:56.979Z,51.49
2023-03-21T19:56:27.037Z,52.32
2023-03-21T19:58:57.473Z,51.93
2023-03-21T20:01:24.867Z,52.16
2023-03-21T20:03:52.482Z,52.65
2023-03-21T20:06:19.940Z,52.39
2023-03-21T20:09:34.099Z,52.64
2023-03-21T20:11:33.811Z,52.82
2023-03-21T20:14:03.141Z,53.65
2023-03-21T20:16:35.032Z,53.25
2023-03-21T20:19:03.473Z,53.59
2023-03-21T20:21:36.586Z,53.58
2023-03-21T20:24:12.704Z,54.41
2023-03-21T20:26:39.492Z,54.16
2023-03-21T20:29:46.988Z,54.18
2023-03-21T20:31:53.261Z,53.79
2023-03-21T20:34:20.579Z,53.42
2023-03-21T20:36:48.246Z,54.20
2023-03-21T20:39:15.408Z,54.05
2023-03-21T20:41:42.166Z,54.56
2023-03-21T20:46:56.708Z,55.50
2023-03-21T20:49:24.409Z,55.63
2023-03-21T20:54:38.241Z,55.37
2023-03-21T20:57:05.145Z,55.53
2023-03-21T20:59:31.969Z,55.83
2023-03-21T21:01:58.794Z,56.01
2023-03-21T21:04:46.897Z,55.75
2023-03-21T21:07:17.419Z,56.34
2023-03-21T21:09:45.045Z,56.85
2023-03-21T21:12:13.082Z,57.00
2023-03-21T21:14:41.282Z,56.58
2023-03-21T21:17:26.713Z,56.75
2023-03-21T21:19:55.421Z,57.07
2023-03-21T21:22:21.999Z,56.94
2023-03-21T21:24:48.569Z,57.01
2023-03-21T21:27:15.165Z,57.29
2023-03-21T21:29:43.409Z,57.30
2023-03-21T21:32:11.406Z,57.25
2023-03-21T21:34:38.337Z,57.35
2023-03-21T21:37:05.181Z,57.10
2023-03-21T21:39:37.910Z,57.40
2023-03-21T21:42:05.431Z,57.28
2023-03-21T21:44:32.097Z,57.08
2023-03-21T21:46:59.063Z,57.10
2023-03-21T21:49:26.757Z,57.41
2023-03-21T21:51:53.483Z,58.16
2023-03-21T21:54:20.074Z,57.81
2023-03-21T21:56:54.156Z,57.82
2023-03-21T21:59:22.230Z,57.60
2023-03-21T22:01:51.456Z,56.83
2023-03-21T22:04:27.733Z,57.28
2023-03-21T22:06:57.365Z,58.20
2023-03-21T22:09:23.993Z,58.58
2023-03-21T22:11:50.579Z,57.88
2023-03-21T22:14:17.256Z,58.69
2023-03-21T22:16:44.121Z,59.32
2023-03-21T22:19:10.727Z,59.08
2023-03-21T22:21:37.293Z,58.57
2023-03-21T22:24:04.051Z,58.52
2023-03-21T22:26:30.700Z,58.24
2023-03-21T22:28:58.437Z,57.91
2023-03-21T22:31:26.396Z,58.24
2023-03-21T22:33:53.179Z,58.00
2023-03-21T22:36:20.309Z,58.21
2023-03-21T22:38:47.857Z,57.95
2023-03-21T22:41:14.581Z,57.79
2023-03-21T22:43:41.315Z,58.53
2023-03-21T22:46:07.917Z,59.50
2023-03-21T22:48:34.882Z,59.14
2023-03-21T22:51:01.568Z,59.44
2023-03-21T22:53:28.612Z,58.85
2023-03-21T22:55:55.736Z,58.84
2023-03-21T22:58:22.547Z,57.99
2023-03-21T23:00:49.361Z,57.73
2023-03-21T23:03:17.013Z,57.70
2023-03-21T23:05:44.977Z,56.94
2023-03-21T23:08:12.614Z,57.19
2023-03-21T23:10:40.313Z,57.12
2023-03-21T23:13:07.102Z,57.41
2023-03-21T23:15:33.721Z,56.94
2023-03-21T23:18:00.300Z,57.00
2023-03-21T23:20:26.979Z,57.55
2023-03-21T23:22:53.685Z,58.05
2023-03-21T23:25:20.724Z,59.01
2023-03-21T23:27:48.108Z,58.68
2023-03-21T23:30:15.021Z,59.13
2023-03-21T23:32:42.190Z,59.17
2023-03-21T23:35:09.611Z,59.12
2023-03-21T23:37:36.215Z,59.15
2023-03-21T23:40:05.846Z,59.13
2023-03-21T23:42:34.132Z,59.61
2023-03-21T23:45:01.007Z,59.18
2023-03-21T23:47:27.766Z,58.99
2023-03-21T23:49:54.523Z,59.25
2023-03-21T23:52:21.480Z,58.90
2023-03-21T23:54:48.220Z,59.23
2023-03-21T23:57:14.775Z,59.63
2023-03-21T23:59:41.331Z,59.54
